Main page
METAR-TAF:

METAR-TAF

Airports :

Weeze Airport

Weeze, Germany

latitude: 51-36-09N, longitude: 006-08-32E, elevation: 32 m

Current weather observation

The report was made 3 hours and 34 minutes ago, at 21:50 UTC
Wind 3 kt from variable directions
Temperature 14°C
Humidity 72%
Pressure 997 hPa
Visibility 10 km or more
no clouds below 1500 m and no cumulonimbus

METAR: EDLV 232150Z VRB03KT CAVOK 14/09 Q0997

Time: 03:24 (01:24 UTC)

Forecast

The report was made 8 hours and 24 minutes ago, at 17:00 UTC
Forecast valid from 23 at 18 UTC to 24 at 18 UTC
Wind 6 kt from the East
Visibility 10 km or more
no clouds below 1500 m and no cumulonimbus
Temporary
from 23 at 18 UTC to 23 at 23 UTC
Wind 15 kt from the East
Becoming
from 23 at 23 UTC to 24 at 02 UTC
Wind 6 kt from the Southeast
Temporary
from 24 at 10 UTC to 24 at 18 UTC
Wind 15 kt from the South with gusts up to 25 kt

TAF: EDLV 231700Z 2318/2418 08006KT CAVOK TEMPO 2318/2323 09015KT BECMG 2323/2402 14006KT TEMPO 2410/2418 18015G25KT

Weather observations and forecasts of more than 4000 airports (METAR and TAF reports).

The available stations are represented by yellow and red dots on the map.

Hover mouse over dot to see the name of the station.

Then click to see weather observations and forecasts.

To change the map : click on the green buttons with a black cross to zoom in, on the green button with a dash to zoom out, or on the green arrows for adjacent maps.


METAR-TAF: